createdAt,value
2017-11-17T00:02:19.881Z,6.70
2017-11-17T00:04:48.979Z,6.68
2017-11-17T00:07:18.037Z,6.73
2017-11-17T00:09:46.349Z,6.71
2017-11-17T00:12:14.653Z,6.63
2017-11-17T00:14:42.966Z,6.64
2017-11-17T00:17:11.290Z,6.72
2017-11-17T00:19:40.373Z,6.71
2017-11-17T00:22:09.449Z,6.77
2017-11-17T00:24:37.790Z,6.75
2017-11-17T00:27:06.089Z,6.78
2017-11-17T00:29:35.165Z,6.79
2017-11-17T00:32:03.461Z,6.84
2017-11-17T00:34:31.774Z,6.78
2017-11-17T00:37:00.845Z,6.73
2017-11-17T00:39:29.474Z,6.86
2017-11-17T00:41:57.781Z,6.87
2017-11-17T00:44:26.102Z,6.94
2017-11-17T00:46:54.425Z,7.00
2017-11-17T00:49:22.738Z,6.99
2017-11-17T00:51:51.050Z,7.08
2017-11-17T00:54:20.133Z,7.05
2017-11-17T00:56:48.446Z,7.13
2017-11-17T00:59:16.762Z,7.22
2017-11-17T01:01:45.073Z,7.14
2017-11-17T01:04:14.162Z,7.16
2017-11-17T01:06:43.229Z,7.17
2017-11-17T01:09:11.549Z,7.20
2017-11-17T01:11:40.610Z,7.24
2017-11-17T01:14:08.919Z,7.33
2017-11-17T01:16:37.981Z,7.18
2017-11-17T01:19:06.296Z,7.28
2017-11-17T01:21:35.418Z,7.32
2017-11-17T01:24:03.755Z,7.39
2017-11-17T01:26:32.818Z,7.40
2017-11-17T01:29:01.133Z,7.43
2017-11-17T01:31:30.204Z,7.41
2017-11-17T01:33:58.510Z,7.42
2017-11-17T01:36:27.588Z,7.54
2017-11-17T01:38:55.918Z,7.50
2017-11-17T01:41:24.218Z,7.52
2017-11-17T01:43:52.534Z,7.62
2017-11-17T01:46:21.605Z,7.62
2017-11-17T01:48:49.938Z,7.67
2017-11-17T01:51:18.255Z,7.77
2017-11-17T01:53:46.561Z,7.75
2017-11-17T01:56:15.634Z,7.79
2017-11-17T01:58:43.935Z,7.86
2017-11-17T02:01:12.999Z,7.92
2017-11-17T02:03:41.302Z,7.95
2017-11-17T02:06:10.365Z,7.81
2017-11-17T02:08:38.687Z,7.89
2017-11-17T02:11:06.990Z,7.94
2017-11-17T02:13:35.313Z,7.97
2017-11-17T02:16:03.601Z,7.93
2017-11-17T02:18:32.674Z,7.99
2017-11-17T02:21:01.000Z,8.06
2017-11-17T02:23:29.316Z,8.05
2017-11-17T02:25:57.655Z,8.06
2017-11-17T02:28:25.966Z,8.03
2017-11-17T02:30:54.276Z,8.07
2017-11-17T02:33:22.574Z,8.06
2017-11-17T02:35:50.896Z,8.07
2017-11-17T02:38:19.206Z,8.12
2017-11-17T02:40:47.519Z,8.18
2017-11-17T02:43:15.844Z,8.19
2017-11-17T02:45:44.192Z,8.20
2017-11-17T02:48:12.494Z,8.23
2017-11-17T02:50:40.820Z,8.26
2017-11-17T02:53:09.142Z,8.24
2017-11-17T02:55:37.455Z,8.19
2017-11-17T02:58:06.547Z,8.18
2017-11-17T03:00:34.866Z,8.19
2017-11-17T03:03:03.174Z,8.17
2017-11-17T03:05:31.626Z,8.26
2017-11-17T03:07:59.933Z,8.15
2017-11-17T03:10:28.250Z,8.23
2017-11-17T03:12:56.571Z,8.21
2017-11-17T03:15:24.887Z,8.21
2017-11-17T03:17:53.191Z,8.16
2017-11-17T03:20:21.503Z,8.26
2017-11-17T03:22:49.828Z,8.25
2017-11-17T03:25:18.909Z,8.21
2017-11-17T03:27:47.214Z,8.14
2017-11-17T03:30:15.545Z,8.21
2017-11-17T03:32:43.852Z,8.20
2017-11-17T03:35:12.936Z,8.11
2017-11-17T03:37:41.254Z,8.01
2017-11-17T03:40:09.567Z,8.03
2017-11-17T03:42:37.870Z,8.01
2017-11-17T03:45:06.197Z,7.99
2017-11-17T03:47:34.498Z,8.00
2017-11-17T03:50:02.811Z,7.97
2017-11-17T03:52:31.893Z,7.96
2017-11-17T03:55:00.253Z,7.91
2017-11-17T03:57:28.558Z,7.91
2017-11-17T03:59:56.869Z,7.95
2017-11-17T04:02:25.188Z,7.95
2017-11-17T04:04:53.497Z,8.03
2017-11-17T04:07:22.569Z,8.04
2017-11-17T04:09:50.889Z,8.05
2017-11-17T04:12:19.243Z,8.06
2017-11-17T04:14:48.313Z,8.07
2017-11-17T04:17:16.623Z,8.05
2017-11-17T04:19:45.711Z,8.04
2017-11-17T04:22:14.787Z,8.01
2017-11-17T04:24:43.107Z,8.02
2017-11-17T04:27:11.402Z,8.06
2017-11-17T04:29:39.710Z,8.06
2017-11-17T04:32:08.034Z,8.07
2017-11-17T04:34:36.351Z,8.13
2017-11-17T04:37:04.665Z,8.15
2017-11-17T04:39:33.750Z,8.16
2017-11-17T04:42:02.041Z,8.18
2017-11-17T04:44:31.118Z,8.17
2017-11-17T04:46:59.436Z,8.17
2017-11-17T04:49:27.759Z,8.16
2017-11-17T04:51:56.092Z,8.14
2017-11-17T04:54:24.406Z,8.14
2017-11-17T04:56:52.734Z,8.12
2017-11-17T04:59:21.052Z,8.10
2017-11-17T05:01:49.369Z,8.03
2017-11-17T05:04:17.673Z,7.94
2017-11-17T05:06:45.999Z,7.90
2017-11-17T05:09:14.302Z,7.86
2017-11-17T05:11:42.624Z,7.91
2017-11-17T05:14:10.923Z,7.87
2017-11-17T05:16:39.232Z,7.83
2017-11-17T05:19:07.578Z,7.88
2017-11-17T05:21:35.910Z,7.86
2017-11-17T05:24:05.004Z,7.91
2017-11-17T05:26:33.335Z,7.92
2017-11-17T05:29:01.642Z,7.99
2017-11-17T05:31:29.953Z,8.02
2017-11-17T05:33:58.271Z,8.07
2017-11-17T05:36:26.612Z,8.06
2017-11-17T05:38:55.006Z,8.07
2017-11-17T05:41:23.330Z,8.02
2017-11-17T05:43:51.642Z,8.02
2017-11-17T05:46:19.950Z,7.99
2017-11-17T05:48:48.347Z,8.03
2017-11-17T05:51:16.692Z,7.98
2017-11-17T05:53:45.034Z,7.97
2017-11-17T05:56:13.346Z,7.94
2017-11-17T05:58:41.646Z,7.93
2017-11-17T06:01:09.956Z,7.89
2017-11-17T06:03:39.073Z,7.88
2017-11-17T06:06:07.388Z,7.91
2017-11-17T06:08:35.690Z,7.87
2017-11-17T06:11:04.027Z,7.84
2017-11-17T06:13:32.325Z,7.82
2017-11-17T06:16:00.647Z,7.84
2017-11-17T06:18:28.962Z,7.83
2017-11-17T06:20:57.291Z,7.88
2017-11-17T06:23:26.361Z,7.84
2017-11-17T06:25:54.687Z,7.82
2017-11-17T06:28:22.999Z,7.79
2017-11-17T06:30:51.310Z,7.75
2017-11-17T06:33:20.396Z,7.72
2017-11-17T06:35:48.713Z,7.66
2017-11-17T06:38:17.029Z,7.59
2017-11-17T06:40:45.354Z,7.50
2017-11-17T06:43:14.419Z,7.38
2017-11-17T06:45:42.742Z,7.31
2017-11-17T06:48:11.051Z,7.24
2017-11-17T06:50:39.380Z,7.15
2017-11-17T06:53:07.691Z,7.08
2017-11-17T06:55:35.994Z,7.03
2017-11-17T06:58:04.294Z,6.95
2017-11-17T07:00:33.382Z,6.90
2017-11-17T07:03:01.690Z,6.86
2017-11-17T07:05:30.786Z,6.83
2017-11-17T07:07:59.847Z,6.77
2017-11-17T07:10:28.186Z,6.79
2017-11-17T07:12:56.499Z,6.73
2017-11-17T07:15:24.814Z,6.71
2017-11-17T07:17:53.879Z,6.78
2017-11-17T07:20:22.187Z,6.71
2017-11-17T07:22:51.262Z,6.71
2017-11-17T07:25:20.341Z,6.68
2017-11-17T07:27:48.662Z,6.71
2017-11-17T07:30:16.975Z,6.70
2017-11-17T07:32:45.302Z,6.71
2017-11-17T07:35:14.402Z,6.71
2017-11-17T07:37:43.484Z,6.76
2017-11-17T07:40:12.560Z,6.74
2017-11-17T07:42:40.878Z,6.81
2017-11-17T07:45:09.187Z,6.83
2017-11-17T07:47:37.503Z,6.90
2017-11-17T07:50:05.825Z,6.91
2017-11-17T07:52:34.135Z,6.94
2017-11-17T07:55:02.497Z,6.99
2017-11-17T07:57:30.799Z,7.06
2017-11-17T07:59:59.108Z,7.11
2017-11-17T08:02:28.190Z,7.12
2017-11-17T08:04:57.263Z,7.21
2017-11-17T08:07:25.645Z,7.20
2017-11-17T08:09:53.953Z,7.21
2017-11-17T08:12:22.283Z,7.33
2017-11-17T08:14:50.602Z,7.33
2017-11-17T08:20:24.146Z,7.33
2017-11-17T08:22:52.450Z,7.39
2017-11-17T08:25:20.751Z,7.51
2017-11-17T08:27:49.077Z,7.57
2017-11-17T08:30:17.383Z,7.64
2017-11-17T08:32:45.695Z,7.68
2017-11-17T08:35:14.003Z,7.66
2017-11-17T08:37:42.320Z,7.78
2017-11-17T08:40:10.641Z,7.87
2017-11-17T08:42:39.723Z,7.95
2017-11-17T08:45:08.045Z,8.18
2017-11-17T08:47:36.372Z,8.56
2017-11-17T08:50:04.676Z,8.68
2017-11-17T08:52:33.756Z,10.29
2017-11-17T08:55:02.063Z,12.77
2017-11-17T08:57:31.026Z,12.39
2017-11-17T08:59:59.341Z,13.55
2017-11-17T09:02:27.655Z,13.07
2017-11-17T09:04:55.978Z,10.45
2017-11-17T09:07:25.043Z,9.58
2017-11-17T09:09:53.376Z,9.66
2017-11-17T09:12:21.674Z,9.51
2017-11-17T09:14:50.022Z,9.59
2017-11-17T09:17:18.326Z,9.45
2017-11-17T09:19:46.643Z,9.28
2017-11-17T09:22:14.965Z,9.32
2017-11-17T09:24:43.276Z,9.49
2017-11-17T09:27:11.586Z,9.59
2017-11-17T09:29:40.679Z,9.33
2017-11-17T09:32:09.746Z,9.27
2017-11-17T09:34:38.056Z,9.13
2017-11-17T09:37:07.121Z,9.19
2017-11-17T09:39:35.440Z,9.05
2017-11-17T09:42:03.740Z,9.02
2017-11-17T09:44:32.063Z,9.14
2017-11-17T09:47:00.379Z,9.14
2017-11-17T09:49:28.695Z,9.26
2017-11-17T09:51:57.011Z,9.07
2017-11-17T09:54:26.102Z,9.04
2017-11-17T09:56:54.417Z,9.25
2017-11-17T09:59:22.726Z,9.30
2017-11-17T10:01:51.027Z,9.05
2017-11-17T10:04:20.099Z,9.11
2017-11-17T10:06:48.412Z,9.21
2017-11-17T10:09:17.495Z,9.05
2017-11-17T10:11:45.795Z,9.03
2017-11-17T10:14:14.103Z,9.14
2017-11-17T10:16:42.475Z,9.25
2017-11-17T10:19:10.789Z,9.23
2017-11-17T10:21:39.103Z,9.28
2017-11-17T10:24:07.420Z,9.30
2017-11-17T10:26:35.728Z,9.25
2017-11-17T10:29:04.815Z,9.26
2017-11-17T10:31:33.110Z,9.32
2017-11-17T10:34:02.187Z,9.30
2017-11-17T10:36:30.493Z,9.36
2017-11-17T10:38:59.561Z,9.42
2017-11-17T10:41:27.869Z,9.32
2017-11-17T10:43:56.203Z,9.41
2017-11-17T10:46:24.515Z,9.49
2017-11-17T10:48:53.602Z,9.51
2017-11-17T10:51:22.767Z,9.44
2017-11-17T10:53:51.082Z,9.35
2017-11-17T10:56:34.784Z,9.32
2017-11-17T10:59:05.043Z,9.48
2017-11-17T11:01:34.117Z,9.53
2017-11-17T11:04:02.423Z,9.30
2017-11-17T11:06:31.502Z,9.14
2017-11-17T11:08:59.807Z,9.10
2017-11-17T11:11:33.788Z,8.96
2017-11-17T11:14:02.868Z,9.03
2017-11-17T11:16:31.179Z,8.93
2017-11-17T11:19:06.041Z,8.96
2017-11-17T11:21:34.339Z,8.98
2017-11-17T11:24:02.667Z,9.13
2017-11-17T11:26:30.986Z,9.22
2017-11-17T11:28:59.304Z,9.21
2017-11-17T11:31:28.376Z,9.28
2017-11-17T11:33:56.687Z,9.20
2017-11-17T11:36:25.765Z,9.30
2017-11-17T11:38:54.079Z,9.44
2017-11-17T11:41:22.393Z,9.50
2017-11-17T11:43:51.480Z,9.75
2017-11-17T11:46:19.784Z,9.83
2017-11-17T11:48:48.130Z,9.84
2017-11-17T11:51:16.442Z,9.79
2017-11-17T11:53:44.751Z,9.96
2017-11-17T11:56:13.047Z,9.96
2017-11-17T11:58:41.354Z,9.68
2017-11-17T12:01:09.671Z,9.46
2017-11-17T12:03:37.995Z,9.32
2017-11-17T12:06:06.292Z,9.14
2017-11-17T12:08:34.599Z,8.96
2017-11-17T12:11:03.664Z,8.90
2017-11-17T12:13:31.988Z,8.85
2017-11-17T12:16:00.321Z,8.82
2017-11-17T12:18:28.635Z,8.77
2017-11-17T12:20:57.707Z,8.74
2017-11-17T12:23:26.006Z,8.89
2017-11-17T12:25:55.085Z,9.08
2017-11-17T12:28:23.378Z,9.36
2017-11-17T12:30:52.455Z,9.61
2017-11-17T12:33:20.760Z,9.92
2017-11-17T12:35:49.088Z,10.08
2017-11-17T12:38:17.401Z,9.98
2017-11-17T12:40:46.490Z,10.13
2017-11-17T12:43:15.596Z,10.48
2017-11-17T12:45:43.914Z,10.69
2017-11-17T12:48:12.218Z,11.13
2017-11-17T12:50:40.525Z,10.93
2017-11-17T12:53:09.589Z,10.81
2017-11-17T12:55:37.903Z,10.77
2017-11-17T12:58:06.972Z,10.69
2017-11-17T13:00:36.067Z,10.89
2017-11-17T13:03:04.389Z,10.42
2017-11-17T13:05:32.723Z,10.59
2017-11-17T13:08:01.041Z,10.66
2017-11-17T13:10:29.374Z,10.61
2017-11-17T13:12:57.674Z,10.80
2017-11-17T13:15:26.783Z,10.53
2017-11-17T13:17:55.095Z,10.69
2017-11-17T13:20:24.184Z,10.77
2017-11-17T13:22:52.522Z,10.71
2017-11-17T13:25:21.604Z,10.83
2017-11-17T13:27:50.680Z,11.07
2017-11-17T13:30:18.999Z,10.73
2017-11-17T13:32:47.318Z,10.44
2017-11-17T13:35:15.640Z,10.31
2017-11-17T13:37:44.771Z,10.21
2017-11-17T13:40:13.086Z,10.02
2017-11-17T13:42:41.391Z,9.97
2017-11-17T13:45:10.471Z,9.73
2017-11-17T13:47:38.770Z,9.66
2017-11-17T13:50:07.091Z,9.61
2017-11-17T13:52:35.390Z,9.45
2017-11-17T13:55:03.703Z,9.40
2017-11-17T13:57:32.008Z,9.20
2017-11-17T14:00:00.342Z,9.12
2017-11-17T14:02:29.414Z,9.06
2017-11-17T14:04:57.719Z,8.92
2017-11-17T14:07:26.800Z,8.81
2017-11-17T14:09:55.101Z,8.70
2017-11-17T14:12:24.180Z,8.62
2017-11-17T14:14:53.251Z,8.52
2017-11-17T14:17:21.564Z,8.43
2017-11-17T14:19:50.644Z,8.38
2017-11-17T14:22:19.727Z,8.33
2017-11-17T14:24:48.054Z,8.25
2017-11-17T14:27:16.367Z,8.20
2017-11-17T14:29:44.679Z,8.09
2017-11-17T14:32:13.772Z,8.04
2017-11-17T14:34:42.835Z,8.03
2017-11-17T14:37:11.150Z,8.02
2017-11-17T14:39:40.216Z,7.99
2017-11-17T14:42:08.527Z,7.99
2017-11-17T14:44:36.853Z,7.26
2017-11-17T14:47:05.162Z,8.19
2017-11-17T14:49:33.491Z,8.34
2017-11-17T14:52:01.821Z,8.34
2017-11-17T14:54:30.917Z,8.29
2017-11-17T14:57:00.014Z,8.25
2017-11-17T14:59:29.103Z,8.32
2017-11-17T15:01:57.416Z,8.20
2017-11-17T15:04:25.725Z,8.08
2017-11-17T15:06:54.037Z,8.63
2017-11-17T15:09:22.348Z,8.45
2017-11-17T15:14:47.950Z,9.64
2017-11-17T15:17:17.027Z,9.40
2017-11-17T15:22:43.166Z,8.56
2017-11-17T15:25:11.466Z,8.07
2017-11-17T15:27:39.812Z,8.63
2017-11-17T15:30:08.115Z,9.06
2017-11-17T15:32:36.431Z,9.20
2017-11-17T15:35:04.735Z,8.63
2017-11-17T15:37:33.060Z,8.53
2017-11-17T15:40:02.124Z,8.03
2017-11-17T15:42:30.455Z,7.48
2017-11-17T15:44:58.965Z,7.36
2017-11-17T15:47:27.309Z,7.12
2017-11-17T15:49:55.609Z,6.71
2017-11-17T15:52:24.911Z,6.52
2017-11-17T15:54:53.214Z,6.23
2017-11-17T15:57:21.529Z,6.07
2017-11-17T15:59:50.612Z,5.98
2017-11-17T16:02:18.934Z,6.10
2017-11-17T16:04:48.077Z,5.97
2017-11-17T16:07:16.392Z,5.68
2017-11-17T16:09:44.696Z,5.52
2017-11-17T16:12:13.051Z,5.38
2017-11-17T16:14:41.373Z,5.29
2017-11-17T16:17:09.710Z,5.20
2017-11-17T16:19:38.015Z,5.10
2017-11-17T16:22:06.334Z,5.08
2017-11-17T16:24:35.395Z,5.04
2017-11-17T16:27:03.702Z,4.96
2017-11-17T16:29:32.774Z,4.93
2017-11-17T16:32:01.090Z,4.91
2017-11-17T16:34:30.159Z,4.82
2017-11-17T16:39:55.293Z,4.71
2017-11-17T16:42:24.428Z,4.56
2017-11-17T16:44:52.728Z,5.96
2017-11-17T16:47:21.035Z,5.37
2017-11-17T16:49:49.359Z,4.86
2017-11-17T16:52:17.676Z,4.66
2017-11-17T16:54:45.986Z,4.58
2017-11-17T16:57:15.078Z,4.53
2017-11-17T16:59:44.151Z,4.45
2017-11-17T17:02:12.470Z,4.43
2017-11-17T17:04:40.779Z,4.36
2017-11-17T17:07:09.132Z,4.25
2017-11-17T17:09:37.440Z,4.20
2017-11-17T17:12:05.781Z,4.11
2017-11-17T17:14:34.098Z,3.99
2017-11-17T17:17:02.420Z,3.89
2017-11-17T17:19:30.741Z,3.76
2017-11-17T17:21:59.034Z,3.73
2017-11-17T17:24:27.351Z,3.65
2017-11-17T17:26:56.470Z,3.59
2017-11-17T17:29:24.784Z,3.57
2017-11-17T17:31:53.094Z,3.47
2017-11-17T17:34:22.167Z,3.38
2017-11-17T17:36:50.509Z,3.38
2017-11-17T17:39:18.896Z,3.39
2017-11-17T17:41:47.203Z,3.40
2017-11-17T17:44:15.534Z,3.32
2017-11-17T17:46:43.862Z,3.21
2017-11-17T17:49:12.173Z,3.05
2017-11-17T17:51:40.478Z,2.97
2017-11-17T17:54:08.796Z,2.94
2017-11-17T17:56:37.112Z,2.92
2017-11-17T17:59:05.411Z,2.94
2017-11-17T18:01:33.739Z,2.92
2017-11-17T18:04:02.048Z,2.88
2017-11-17T18:06:30.354Z,2.86
2017-11-17T18:08:58.657Z,2.94
2017-11-17T18:11:26.981Z,3.05
2017-11-17T18:13:55.278Z,3.08
2017-11-17T18:16:23.587Z,3.07
2017-11-17T18:18:51.896Z,3.12
2017-11-17T18:21:20.970Z,3.12
2017-11-17T18:23:50.051Z,3.24
2017-11-17T18:26:18.426Z,3.16
2017-11-17T18:28:46.748Z,3.11
2017-11-17T18:31:15.031Z,3.09
2017-11-17T18:33:43.365Z,3.02
2017-11-17T18:36:11.721Z,3.09
2017-11-17T18:38:40.143Z,3.13
2017-11-17T18:41:08.475Z,3.12
2017-11-17T18:43:36.814Z,3.15
2017-11-17T18:46:05.125Z,3.13
2017-11-17T18:48:33.482Z,3.09
2017-11-17T18:51:01.775Z,3.09
2017-11-17T18:53:30.101Z,3.03
2017-11-17T18:55:58.435Z,3.04
2017-11-17T18:58:29.241Z,3.03
2017-11-17T19:00:57.580Z,3.06
2017-11-17T19:03:25.907Z,3.08
2017-11-17T19:05:54.203Z,3.09
2017-11-17T19:08:22.583Z,3.11
2017-11-17T19:10:50.850Z,3.11
2017-11-17T19:13:19.194Z,3.05
2017-11-17T19:15:48.263Z,3.06
2017-11-17T19:18:16.574Z,2.98
2017-11-17T19:20:44.884Z,3.01
2017-11-17T19:23:13.219Z,3.00
2017-11-17T19:25:42.287Z,3.04
2017-11-17T19:28:10.645Z,3.03
2017-11-17T19:30:38.998Z,3.06
2017-11-17T19:33:07.375Z,2.97
2017-11-17T19:35:35.673Z,2.98
2017-11-17T19:38:04.028Z,2.93
2017-11-17T19:40:32.335Z,2.87
2017-11-17T19:43:00.666Z,2.89
2017-11-17T19:45:28.965Z,2.88
2017-11-17T19:47:57.337Z,2.86
2017-11-17T19:50:25.647Z,2.92
2017-11-17T19:52:54.011Z,2.90
2017-11-17T19:55:22.336Z,2.89
2017-11-17T19:57:52.161Z,2.94
2017-11-17T20:00:21.260Z,3.03
2017-11-17T20:02:50.354Z,2.98
2017-11-17T20:05:20.113Z,2.96
2017-11-17T20:07:48.444Z,2.90
2017-11-17T20:10:17.540Z,2.89
2017-11-17T20:12:46.623Z,2.91
2017-11-17T20:15:15.758Z,2.94
2017-11-17T20:17:44.071Z,2.97
2017-11-17T20:20:12.375Z,2.88
2017-11-17T20:22:41.494Z,2.83
2017-11-17T20:25:09.811Z,2.81
2017-11-17T20:27:38.136Z,2.81
2017-11-17T20:30:07.212Z,2.86
2017-11-17T20:32:35.535Z,2.87
2017-11-17T20:35:03.849Z,2.87
2017-11-17T20:37:32.160Z,2.85
2017-11-17T20:40:01.242Z,2.81
2017-11-17T20:42:29.546Z,2.83
2017-11-17T20:44:57.859Z,2.78
2017-11-17T20:47:26.183Z,2.73
2017-11-17T20:49:55.336Z,2.72
2017-11-17T20:52:23.658Z,2.72
2017-11-17T20:54:52.751Z,2.66
2017-11-17T20:57:21.869Z,2.59
2017-11-17T20:59:50.184Z,2.52
2017-11-17T21:02:18.504Z,2.45
2017-11-17T21:04:47.632Z,2.48
2017-11-17T21:07:15.969Z,2.45
2017-11-17T21:09:45.107Z,2.48
2017-11-17T21:12:13.489Z,2.47
2017-11-17T21:14:41.815Z,2.46
2017-11-17T21:17:10.129Z,2.44
2017-11-17T21:19:38.486Z,2.46
2017-11-17T21:22:07.597Z,2.49
2017-11-17T21:24:35.898Z,2.46
2017-11-17T21:27:04.204Z,2.50
2017-11-17T21:29:32.510Z,2.50
2017-11-17T21:32:01.590Z,2.44
2017-11-17T21:34:29.962Z,2.43
2017-11-17T21:36:58.284Z,2.40
2017-11-17T21:39:26.599Z,2.41
2017-11-17T21:41:54.930Z,2.32
2017-11-17T21:44:23.251Z,2.31
2017-11-17T21:46:52.348Z,2.26
2017-11-17T21:49:20.644Z,2.21
2017-11-17T21:51:48.973Z,2.16
2017-11-17T21:54:17.274Z,2.14
2017-11-17T21:56:45.597Z,2.14
2017-11-17T21:59:14.676Z,2.19
2017-11-17T22:01:43.016Z,2.17
2017-11-17T22:04:11.338Z,2.15
2017-11-17T22:06:39.742Z,2.15
2017-11-17T22:09:08.168Z,2.22
2017-11-17T22:11:36.480Z,2.28
2017-11-17T22:14:05.557Z,2.27
2017-11-17T22:16:33.878Z,2.31
2017-11-17T22:19:02.194Z,2.34
2017-11-17T22:21:30.529Z,2.38
2017-11-17T22:23:58.831Z,2.41
2017-11-17T22:26:27.152Z,2.38
2017-11-17T22:28:55.485Z,2.33
2017-11-17T22:31:23.823Z,2.32
2017-11-17T22:33:52.885Z,2.29
2017-11-17T22:36:21.207Z,2.28
2017-11-17T22:38:49.509Z,2.30
2017-11-17T22:41:17.815Z,2.33
2017-11-17T22:43:46.123Z,2.27
2017-11-17T22:46:15.203Z,2.31
2017-11-17T22:48:43.518Z,2.27
2017-11-17T22:51:11.810Z,2.31
2017-11-17T22:53:40.119Z,2.18
2017-11-17T22:56:08.426Z,2.21
2017-11-17T22:58:37.519Z,2.26
2017-11-17T23:01:06.635Z,2.38
2017-11-17T23:03:34.966Z,2.47
2017-11-17T23:06:03.279Z,2.41
2017-11-17T23:08:32.403Z,2.31
2017-11-17T23:11:00.726Z,2.12
2017-11-17T23:13:29.062Z,2.13
2017-11-17T23:15:57.371Z,2.12
2017-11-17T23:18:25.715Z,2.13
2017-11-17T23:20:54.069Z,2.20
2017-11-17T23:23:22.386Z,2.22
2017-11-17T23:25:50.681Z,2.13
2017-11-17T23:28:18.990Z,2.17
2017-11-17T23:30:48.061Z,2.22
2017-11-17T23:33:16.380Z,2.28
2017-11-17T23:35:44.695Z,2.26
2017-11-17T23:38:13.035Z,2.21
2017-11-17T23:40:41.370Z,2.26
2017-11-17T23:43:09.688Z,2.19
2017-11-17T23:45:38.759Z,2.14
2017-11-17T23:48:07.071Z,2.17
2017-11-17T23:50:35.382Z,2.13
2017-11-17T23:53:03.711Z,2.20
2017-11-17T23:55:32.782Z,2.15
2017-11-17T23:58:01.106Z,2.11
